Latest Weather Observations for Cape Moreton

IDQ60901

Issued at 3:31 pm EST Thursday 1 October 2020 (issued every 10 minutes, with the page automatically refreshed every 10 minutes)

About weather observations | Map of Brisbane area stations | Latest observations for Brisbane area | Other Formats
Station Details ID: 040043 Name: CAPE MORETON LIGHTHOUSE Lat: -27.03 Lon: 153.47 Height: 99.9 m
Data from the previous 72 hours. | See also: Recent months at Cape Moreton
Date/Time
EST
Temp
°C
App
Temp
°C
Dew
Point
°C
Rel
Hum
%
Delta-T
°C
Wind Press
QNH
hPa
Press
MSL
hPa
Rain since
9am
mm
Dir  Spd
km/h
Gust
km/h
Spd
kts
Gust
kts
01/03:30pm 21.5 17.9 15.3 68 3.7 NE 28 35 15 19 1017.5 1017.2 0.0
01/03:00pm 21.8 17.5 15.4 67 3.8 NE 32 39 17 21 1017.1 1016.8 0.0
01/02:30pm 22.4 18.7 15.0 63 4.4 NNE 28 35 15 19 1017.4 1017.1 0.0
01/02:00pm 22.6 19.2 14.7 61 4.7 NE 26 33 14 18 1017.7 1017.4 0.0
01/01:30pm 23.7 21.5 14.4 56 5.5 NNE 19 28 10 15 1018.2 1017.9 0.0
01/01:00pm 23.3 21.1 14.3 57 5.3 N 19 24 10 13 1018.8 1018.5 0.0
01/12:30pm 23.2 20.0 14.2 57 5.3 N 24 30 13 16 1019.0 1018.7 0.0
01/12:00pm 23.1 20.7 14.4 58 5.1 NNW 20 26 11 14 1019.2 1018.9 0.0
01/11:30am 23.3 21.6 14.8 59 5.1 NNW 17 26 9 14 1019.8 1019.5 0.0
01/11:00am 22.5 20.9 15.1 63 4.4 NNW 17 22 9 12 1020.2 1019.9 0.0
01/10:30am 21.4 18.9 13.6 61 4.5 NW 19 22 10 12 1020.3 1020.0 0.0
01/10:00am 21.4 18.8 13.8 62 4.4 NW 20 24 11 13 1020.5 1020.2 0.0
01/09:30am 21.1 19.5 14.0 64 4.1 NW 15 24 8 13 1020.5 1020.3 0.0
01/09:00am 21.0 19.1 14.2 65 4.0 NW 17 24 9 13 1020.8 1020.6 0.0
01/08:30am 20.8 18.7 13.5 63 4.2 NW 17 20 9 11 1020.7 1020.5 0.0
01/08:00am 20.5 18.9 13.9 66 3.8 NW 15 20 8 11 1020.6 1020.4 0.0
01/07:30am 19.9 18.1 13.4 66 3.7 NW 15 19 8 10 1020.3 1020.1 0.0
01/07:00am 19.5 18.0 13.2 67 3.6 NW 13 19 7 10 1020.0 1019.8 0.0
01/06:30am 18.9 17.4 13.1 69 3.3 WNW 13 19 7 10 1019.8 1019.6 0.0
01/06:00am 18.3 16.3 12.7 70 3.1 NW 15 20 8 11 1019.4 1019.2 0.0
01/05:30am 18.1 15.9 13.4 74 2.7 WNW 17 20 9 11 1019.2 1019.0 0.0
01/05:00am 18.5 16.9 14.0 75 2.6 NW 15 20 8 11 1018.9 1018.7 0.0
01/04:30am 19.4 15.5 12.2 63 4.0 N 24 28 13 15 1018.3 1018.0 0.0
01/04:00am 19.4 15.8 12.9 66 3.7 N 24 30 13 16 1018.1 1017.8 0.0
01/03:30am 19.4 16.1 12.9 66 3.7 N 22 30 12 16 1018.1 1017.8 0.0
01/03:00am 19.4 16.0 12.4 64 3.9 N 22 35 12 19 1018.1 1017.8 0.0
01/02:30am 19.3 16.0 12.8 66 3.7 N 22 33 12 18 1018.1 1017.8 0.0
01/02:00am 19.2 16.2 12.5 65 3.8 N 20 30 11 16 1018.3 1018.0 0.0
01/01:30am 19.3 15.2 11.6 61 4.3 N 24 32 13 17 1018.7 1018.5 0.0
01/01:00am 19.3 15.4 12.1 63 4.0 NNE 24 33 13 18 1018.8 1018.6 0.0
01/12:30am 19.3 15.5 12.3 64 3.9 NNE 24 33 13 18 1019.1 1018.9 0.0
01/12:00am 19.4 15.9 12.2 63 4.0 NNE 22 32 12 17 1019.6 1019.4 0.0
 
Date/Time
EST
Temp
°C
App
Temp
°C
Dew
Point
°C
Rel
Hum
%
Delta-T
°C
Wind Press
QNH
hPa
Press
MSL
hPa
Rain since
9am
mm
Dir  Spd
km/h
Gust
km/h
Spd
kts
Gust
kts
30/11:30pm 19.4 15.1 11.9 62 4.2 NNE 26 35 14 19 1019.8 1019.6 0.0
30/11:00pm 19.4 15.4 11.7 61 4.3 NNE 24 32 13 17 1020.1 1019.9 0.0
30/10:30pm 19.4 15.5 10.9 58 4.6 NNE 22 30 12 16 1020.3 1020.1 0.0
30/10:00pm 19.3 15.5 11.1 59 4.5 NNE 22 28 12 15 1020.2 1020.0 0.0
30/09:30pm 19.4 15.5 10.7 57 4.7 NNE 22 28 12 15 1020.5 1020.3 0.0
30/09:00pm 19.5 15.2 10.8 57 4.7 NE 24 30 13 16 1020.6 1020.4 0.0
30/08:30pm 19.5 15.4 10.0 54 5.1 NE 22 26 12 14 1020.5 1020.3 0.0
30/08:00pm 19.5 15.9 10.5 56 4.9 NE 20 28 11 15 1020.3 1020.1 0.0
30/07:30pm 19.6 16.0 10.6 56 4.9 NNE 20 28 11 15 1020.1 1019.9 0.0
30/07:00pm 19.4 15.5 10.9 58 4.6 NNE 22 28 12 15 1019.7 1019.5 0.0
30/06:30pm 19.2 16.1 12.2 64 3.9 NE 20 28 11 15 1019.2 1019.0 0.0
30/06:00pm 19.2 16.0 12.0 63 4.0 NE 20 26 11 14 1019.1 1018.9 0.0
30/05:30pm 19.0 16.1 12.3 65 3.7 NE 19 22 10 12 1019.1 1018.9 0.0
30/05:00pm 18.8 15.3 12.3 66 3.6 NE 22 28 12 15 1018.8 1018.6 0.0
30/04:30pm 18.5 14.9 12.9 70 3.2 NNE 24 32 13 17 1018.9 1018.7 0.0
30/04:00pm 19.2 16.5 13.4 69 3.3 NNE 20 26 11 14 1019.1 1018.9 0.0
30/03:30pm 19.5 17.7 13.4 68 3.5 NNE 15 28 8 15 1018.9 1018.7 0.0
30/03:00pm 19.4 17.1 13.1 67 3.6 NNE 17 22 9 12 1019.1 1018.9 0.0
30/02:30pm 20.0 17.5 13.5 66 3.7 NNE 19 28 10 15 1019.5 1019.3 0.0
30/02:00pm 21.6 19.8 14.5 64 4.2 NNE 17 26 9 14 1019.5 1019.3 0.0
30/01:30pm 21.0 18.6 12.7 59 4.7 NE 17 20 9 11 1019.9 1019.7 0.0
30/01:00pm 22.2 19.4 13.3 57 5.1 ENE 20 24 11 13 1020.2 1020.0 0.0
30/12:30pm 22.4 19.6 13.2 56 5.3 ENE 20 24 11 13 1020.6 1020.4 0.0
30/12:00pm 22.4 19.2 13.2 56 5.3 ENE 22 28 12 15 1020.8 1020.6 0.0
30/11:30am 22.1 19.1 12.6 55 5.4 ENE 20 28 11 15 1021.4 1021.2 0.0
30/11:00am 22.7 19.2 12.3 52 5.9 ENE 22 28 12 15 1021.7 1021.5 0.0
30/10:30am 21.4 17.2 12.3 56 5.2 ENE 26 33 14 18 1021.7 1021.5 0.0
30/10:00am 21.9 17.0 12.7 56 5.2 ENE 30 35 16 19 1021.7 1021.5 0.0
30/09:30am 20.9 15.5 12.8 60 4.6 ENE 33 41 18 22 1021.8 1021.6 0.0
30/09:00am 21.3 17.3 11.9 55 5.3 E 24 30 13 16 1022.3 1022.1 0.0
30/08:30am 21.2 18.1 12.1 56 5.1 E 20 28 11 15 1022.3 1022.1 0.0
30/08:00am 22.2 18.1 11.6 51 5.9 E 24 28 13 15 1022.2 1022.0 0.0
30/07:30am 21.0 17.4 10.5 51 5.7 ESE 20 26 11 14 1022.3 1022.1 0.0
30/07:00am 20.0 16.6 10.4 54 5.2 ESE 19 24 10 13 1022.3 1022.1 0.0
30/06:30am 19.0 15.3 10.3 57 4.7 ESE 20 28 11 15 1021.9 1021.7 0.0
30/06:00am 18.3 14.0 9.4 56 4.7 ESE 22 26 12 14 1021.4 1021.2 0.0
30/05:30am 17.5 13.5 8.9 57 4.5 ESE 20 26 11 14 1021.1 1020.9 0.0
30/05:00am 17.5 13.7 9.9 61 4.0 ESE 20 28 11 15 1020.9 1020.7 0.0
30/04:30am 17.3 13.3 9.2 59 4.2 ESE 20 26 11 14 1020.7 1020.5 0.0
30/04:00am 17.5 13.6 9.4 59 4.2 ESE 20 30 11 16 1020.6 1020.4 0.0
30/03:30am 17.8 13.5 9.2 57 4.5 ESE 22 26 12 14 1020.7 1020.5 0.0
30/03:00am 17.8 12.9 8.4 54 4.8 ESE 24 32 13 17 1020.7 1020.5 0.0
30/02:30am 17.6 13.2 9.0 57 4.5 ESE 22 30 12 16 1020.9 1020.7 0.0
30/02:00am 17.5 13.1 8.9 57 4.5 ESE 22 30 12 16 1021.4 1021.2 0.0
30/01:30am 17.7 13.0 9.1 57 4.5 ESE 24 30 13 16 1021.7 1021.5 0.0
30/01:00am 17.8 13.8 9.2 57 4.5 ESE 20 26 11 14 1022.3 1022.1 0.0
30/12:30am 17.7 13.6 8.6 55 4.7 ESE 20 28 11 15 1022.8 1022.6 0.0
30/12:00am 17.9 13.8 8.5 54 4.8 SE 20 24 11 13 1023.3 1023.0 0.0
 
Date/Time
EST
Temp
°C
App
Temp
°C
Dew
Point
°C
Rel
Hum
%
Delta-T
°C
Wind Press
QNH
hPa
Press
MSL
hPa
Rain since
9am
mm
Dir  Spd
km/h
Gust
km/h
Spd
kts
Gust
kts
29/11:30pm 17.7 13.6 7.7 52 5.1 ESE 19 22 10 12 1023.5 1023.2 0.0
29/11:00pm 18.1 13.8 9.2 56 4.7 ESE 22 28 12 15 1023.4 1023.1 0.0
29/10:30pm 17.8 13.3 8.4 54 4.9 ESE 22 28 12 15 1023.6 1023.3 0.0
29/10:00pm 18.1 13.0 7.8 51 5.2 E 24 32 13 17 1023.5 1023.2 0.0
29/09:30pm 18.1 12.9 7.2 49 5.5 ESE 24 32 13 17 1023.6 1023.3 0.0
29/09:00pm 18.2 12.5 8.2 52 5.1 ESE 28 35 15 19 1023.6 1023.3 0.0
29/08:30pm 18.1 11.4 7.5 50 5.4 ESE 32 41 17 22 1023.5 1023.2 0.0
29/08:00pm 18.3 11.8 9.1 55 4.8 ESE 33 41 18 22 1023.4 1023.1 0.0
29/07:30pm 18.3 11.4 8.8 54 5.0 ESE 35 43 19 23 1023.1 1022.8 0.0
29/07:00pm 18.2 11.3 9.0 55 4.8 ESE 35 43 19 23 1022.9 1022.7 0.0
29/06:30pm 18.3 12.0 8.8 54 5.0 ESE 32 39 17 21 1022.8 1022.6 0.0
29/06:00pm 18.3 11.8 8.0 51 5.3 ESE 32 39 17 21 1022.3 1022.1 0.0
29/05:30pm 18.5 12.6 7.6 49 5.6 ESE 28 35 15 19 1022.4 1022.2 0.0
29/05:00pm 18.8 11.8 6.0 43 6.3 ESE 32 41 17 22 1022.3 1022.1 0.0
29/04:30pm 19.2 12.0 7.6 47 5.9 ESE 35 41 19 22 1021.8 1021.6 0.0
29/04:00pm 19.4 13.2 9.3 52 5.3 ESE 32 37 17 20 1021.7 1021.5 0.0
29/03:30pm 19.5 12.5 8.5 49 5.7 SE 35 44 19 24 1021.4 1021.2 0.0
29/03:00pm 19.6 12.5 9.5 52 5.4 ESE 37 46 20 25 1021.3 1021.1 0.0
29/02:30pm 20.0 12.7 8.7 48 5.9 SE 37 44 20 24 1021.6 1021.4 0.0
29/02:00pm 20.2 12.9 8.8 48 6.0 SE 37 46 20 25 1022.1 1021.9 0.0
29/01:30pm 20.5 13.5 10.0 51 5.7 SE 37 44 20 24 1022.6 1022.4 0.0
29/01:00pm 21.0 13.9 9.6 48 6.1 SE 37 44 20 24 1022.9 1022.7 0.0
29/12:30pm 21.1 14.0 9.7 48 6.1 SE 37 44 20 24 1023.2 1022.9 0.0
29/12:00pm 20.7 13.5 9.3 48 6.1 SE 37 44 20 24 1023.8 1023.5 0.0
29/11:30am 20.9 13.7 9.2 47 6.2 SE 37 43 20 23 1024.3 1024.0 0.0
29/11:00am 20.9 14.3 10.1 50 5.8 SE 35 43 19 23 1024.8 1024.5 0.0
29/10:30am 21.5 15.2 10.9 51 5.9 SE 35 43 19 23 1025.1 1024.8 0.0
29/10:00am 21.1 14.3 10.6 51 5.7 ESE 37 46 20 25 1025.2 1024.9 0.0
29/09:30am 20.8 13.4 10.0 50 5.8 SE 39 50 21 27 1025.1 1024.8 0.0
29/09:00am 20.6 13.4 10.7 53 5.4 SE 39 48 21 26 1025.1 1024.8 0.0
29/08:30am 19.8 12.6 10.5 55 5.1 ESE 39 48 21 26 1025.0 1024.7 0.0
29/08:00am 18.8 12.1 11.1 61 4.2 ESE 37 43 20 23 1024.6 1024.3 0.0
29/07:30am 20.0 13.7 11.2 57 4.8 ESE 35 43 19 23 1024.2 1023.9 0.0
29/07:00am 18.5 11.6 11.6 64 3.8 ESE 39 46 21 25 1023.7 1023.4 0.0
29/06:30am 18.7 13.0 11.0 61 4.2 ESE 32 39 17 21 1023.5 1023.2 0.0
29/06:00am 18.2 11.8 10.6 61 4.1 ESE 35 46 19 25 1022.7 1022.5 0.0
29/05:30am 18.1 11.3 10.7 62 4.0 ESE 37 46 20 25 1022.4 1022.2 0.0
29/05:00am 18.2 11.9 11.0 63 3.9 ESE 35 46 19 25 1022.1 1021.9 0.0
29/04:30am 18.0 10.5 10.9 63 3.8 ESE 41 48 22 26 1021.9 1021.7 0.0
29/04:00am 17.9 12.0 11.0 64 3.7 ESE 33 41 18 22 1022.1 1021.9 0.0
29/03:30am 18.1 11.8 11.2 64 3.8 ESE 35 43 19 23 1021.9 1021.7 0.0
29/03:00am 17.9 11.4 10.5 62 4.0 ESE 35 43 19 23 1022.1 1021.9 0.0
29/02:30am 17.7 10.0 11.5 67 3.4 ESE 43 54 23 29 1022.1 1021.9 0.0
29/02:00am 17.9 12.2 11.2 65 3.6 ESE 32 39 17 21 1022.5 1022.3 0.0
29/01:30am 18.1 11.8 11.2 64 3.8 ESE 35 43 19 23 1022.9 1022.7 0.0
29/01:00am 17.9 11.6 11.2 65 3.6 ESE 35 41 19 22 1023.1 1022.8 0.0
29/12:30am 18.1 13.2 11.4 65 3.7 ESE 28 35 15 19 1023.5 1023.2 0.0
29/12:00am 18.2 13.0 11.5 65 3.7 ESE 30 39 16 21 1023.8 1023.5 0.0
 
Date/Time
EST
Temp
°C
App
Temp
°C
Dew
Point
°C
Rel
Hum
%
Delta-T
°C
Wind Press
QNH
hPa
Press
MSL
hPa
Rain since
9am
mm
Dir  Spd
km/h
Gust
km/h
Spd
kts
Gust
kts
28/11:30pm 18.1 11.8 11.2 64 3.8 ESE 35 44 19 24 1023.7 1023.4 0.0
28/11:00pm 18.1 12.3 11.4 65 3.7 ESE 33 46 18 25 1024.0 1023.7 0.0
28/10:30pm 18.1 11.6 11.7 66 3.5 ESE 37 44 20 24 1023.9 1023.6 0.0
28/10:00pm 18.1 11.6 11.7 66 3.5 ESE 37 43 20 23 1024.1 1023.8 0.0
28/09:30pm 18.1 11.7 11.9 67 3.4 ESE 37 43 20 23 1024.2 1023.9 0.0
28/09:00pm 18.2 11.8 12.0 67 3.4 ESE 37 48 20 26 1024.2 1023.9 0.0
28/08:30pm 17.9 10.3 11.9 68 3.3 ESE 43 50 23 27 1024.1 1023.8 0.0
28/08:00pm 17.8 10.6 12.0 69 3.2 ESE 41 46 22 25 1024.1 1023.8 0.0
28/07:30pm 17.8 11.6 12.5 71 3.0 ESE 37 46 20 25 1023.9 1023.6 0.0
28/07:00pm 17.8 11.3 11.8 68 3.3 SE 37 44 20 24 1023.7 1023.4 0.0
28/06:30pm 17.9 11.1 12.1 69 3.2 ESE 39 46 21 25 1023.5 1023.2 0.0
28/06:00pm 18.0 11.6 12.0 68 3.3 ESE 37 46 20 25 1022.9 1022.7 0.0
28/05:30pm 18.1 11.8 12.3 69 3.2 ESE 37 44 20 24 1022.7 1022.5 0.0
28/05:00pm 18.5 12.3 12.7 69 3.2 SE 37 46 20 25 1022.2 1022.0 0.0
28/04:30pm 18.8 13.4 12.8 68 3.4 SE 33 44 18 24 1021.9 1021.7 0.0
28/04:00pm 19.2 13.6 12.2 64 3.9 SE 33 41 18 22 1021.8 1021.6 0.0

Latest Capital City Observations: Canberra | Sydney | Melbourne | Brisbane | Adelaide | Perth | Hobart | Darwin

Other formats

Comma delimited format used in spreadsheet applications
http://www.bom.gov.au/fwo/IDQ60901/IDQ60901.94594.axf

JavaScript Object Notation format (JSON) in row-major order
http://www.bom.gov.au/fwo/IDQ60901/IDQ60901.94594.json

Data quality

Most of these data are generated automatically and are frequently updated. Quality checks on data are not normally performed. It is possible for incorrect values to appear. Refer to information at About Latest Weather Observations and please check the disclaimer before using these data.